createdAt,value
2018-08-04T00:01:09.727Z,9.50
2018-08-04T00:06:13.794Z,13.70
2018-08-04T00:11:16.828Z,11.00
2018-08-04T00:16:19.976Z,10.63
2018-08-04T00:21:22.982Z,11.10
2018-08-04T00:26:31.679Z,9.63
2018-08-04T00:31:34.673Z,9.40
2018-08-04T00:36:37.672Z,9.73
2018-08-04T00:41:40.692Z,11.27
2018-08-04T00:46:43.714Z,11.43
2018-08-04T00:51:46.720Z,10.23
2018-08-04T00:56:49.892Z,10.27
2018-08-04T01:01:53.106Z,11.07
2018-08-04T01:06:56.419Z,11.37
2018-08-04T01:11:59.427Z,11.77
2018-08-04T01:17:02.436Z,12.67
2018-08-04T01:22:05.730Z,13.10
2018-08-04T01:27:08.700Z,10.97
2018-08-04T01:32:12.449Z,13.07
2018-08-04T01:37:15.691Z,9.70
2018-08-04T01:42:18.689Z,13.00
2018-08-04T01:47:21.893Z,9.50
2018-08-04T01:52:24.862Z,10.53
2018-08-04T01:57:28.093Z,14.67
2018-08-04T02:02:31.309Z,16.60
2018-08-04T02:07:34.508Z,11.03
2018-08-04T02:12:37.721Z,11.70
2018-08-04T02:17:40.719Z,15.97
2018-08-04T02:22:43.939Z,12.03
2018-08-04T02:27:47.065Z,13.73
2018-08-04T02:32:50.202Z,16.10
2018-08-04T02:37:53.279Z,14.43
2018-08-04T02:42:56.274Z,15.40
2018-08-04T02:47:59.259Z,17.10
2018-08-04T02:53:02.475Z,19.57
2018-08-04T02:58:05.681Z,18.90
2018-08-04T03:03:09.396Z,16.23
2018-08-04T03:08:12.395Z,15.93
2018-08-04T03:13:15.361Z,16.00
2018-08-04T03:18:18.625Z,18.27
2018-08-04T03:23:21.931Z,16.60
2018-08-04T03:28:25.150Z,19.57
2018-08-04T03:33:28.140Z,17.90
2018-08-04T03:38:31.356Z,14.67
2018-08-04T03:43:34.547Z,18.00
2018-08-04T03:48:37.761Z,18.10
2018-08-04T03:53:40.838Z,18.60
2018-08-04T03:58:43.839Z,20.77
2018-08-04T04:03:46.803Z,15.77
2018-08-04T04:08:49.892Z,17.03
2018-08-04T04:13:52.996Z,19.80
2018-08-04T04:18:56.199Z,16.43
2018-08-04T04:23:59.416Z,18.33
2018-08-04T04:29:02.617Z,18.03
2018-08-04T04:34:06.161Z,20.73
2018-08-04T04:39:10.531Z,17.63
2018-08-04T04:44:13.771Z,16.40
2018-08-04T04:49:16.978Z,19.90
2018-08-04T04:54:20.096Z,17.43
2018-08-04T04:59:23.066Z,25.30
2018-08-04T05:04:26.306Z,18.77
2018-08-04T05:09:29.515Z,15.50
2018-08-04T05:14:32.531Z,16.00
2018-08-04T05:19:35.527Z,19.70
2018-08-04T05:24:38.585Z,17.27
2018-08-04T05:29:41.938Z,17.30
2018-08-04T05:34:44.909Z,17.80
2018-08-04T05:39:47.907Z,18.33
2018-08-04T05:44:51.116Z,16.83
2018-08-04T05:49:54.149Z,14.37
2018-08-04T05:54:57.163Z,14.13
2018-08-04T06:00:00.219Z,14.93
2018-08-04T06:05:03.369Z,17.43
2018-08-04T06:10:06.441Z,15.90
2018-08-04T06:15:09.467Z,19.90
2018-08-04T06:20:12.701Z,13.90
2018-08-04T06:25:15.736Z,12.10
2018-08-04T06:30:18.892Z,13.27
2018-08-04T06:35:21.932Z,16.43
2018-08-04T06:40:25.229Z,14.23
2018-08-04T06:45:28.228Z,14.57
2018-08-04T06:50:31.536Z,16.40
2018-08-04T06:55:34.744Z,13.33
2018-08-04T07:00:37.769Z,19.40
2018-08-04T07:05:40.798Z,15.27
2018-08-04T07:10:43.970Z,15.63
2018-08-04T07:15:47.084Z,13.73
2018-08-04T07:20:50.116Z,18.23
2018-08-04T07:25:53.397Z,16.93
2018-08-04T07:30:56.414Z,15.23
2018-08-04T07:35:59.595Z,18.67
2018-08-04T07:41:02.853Z,20.10
2018-08-04T07:46:06.122Z,15.50
2018-08-04T07:51:09.195Z,16.53
2018-08-04T07:56:12.461Z,17.70
2018-08-04T08:01:15.518Z,16.50
2018-08-04T08:06:18.685Z,14.53
2018-08-04T08:11:22.014Z,15.37
2018-08-04T08:16:25.176Z,15.20
2018-08-04T08:21:28.203Z,18.63
2018-08-04T08:26:31.432Z,15.23
2018-08-04T08:31:34.570Z,15.30
2018-08-04T08:36:37.641Z,15.87
2018-08-04T08:41:40.936Z,17.23
2018-08-04T08:46:43.999Z,16.73
2018-08-04T08:51:47.405Z,15.80
2018-08-04T08:56:50.479Z,15.40
2018-08-04T09:01:53.544Z,18.53
2018-08-04T09:06:56.558Z,17.30
2018-08-04T09:11:59.603Z,18.73
2018-08-04T09:17:02.863Z,19.63
2018-08-04T09:22:06.159Z,16.33
2018-08-04T09:27:09.276Z,17.37
2018-08-04T09:32:12.615Z,18.23
2018-08-04T09:37:15.739Z,18.17
2018-08-04T09:42:18.911Z,21.40
2018-08-04T09:47:22.003Z,19.67
2018-08-04T09:52:25.252Z,18.30
2018-08-04T09:57:28.338Z,16.40
2018-08-04T10:02:31.782Z,15.67
2018-08-04T10:07:35.063Z,28.43
2018-08-04T10:12:38.061Z,18.83
2018-08-04T10:17:42.508Z,18.50
2018-08-04T10:22:45.507Z,16.33
2018-08-04T10:27:48.817Z,17.30
2018-08-04T10:32:51.829Z,18.57
2018-08-04T10:37:55.024Z,18.93
2018-08-04T10:42:58.212Z,18.30
2018-08-04T10:48:01.438Z,18.20
2018-08-04T10:53:04.895Z,16.73
2018-08-04T10:58:08.041Z,16.67
2018-08-04T11:03:11.266Z,17.10
2018-08-04T11:08:14.356Z,16.97
2018-08-04T11:13:17.553Z,18.17
2018-08-04T11:18:20.886Z,17.30
2018-08-04T11:23:23.931Z,17.80
2018-08-04T11:28:27.104Z,17.53
2018-08-04T11:33:30.149Z,20.30
2018-08-04T11:38:33.291Z,15.10
2018-08-04T11:43:36.342Z,16.13
2018-08-04T11:48:40.165Z,15.80
2018-08-04T11:53:43.181Z,15.43
2018-08-04T11:58:46.222Z,16.00
2018-08-04T12:03:49.287Z,14.03
2018-08-04T12:08:52.271Z,13.30
2018-08-04T12:13:55.464Z,13.90
2018-08-04T12:18:58.624Z,13.43
2018-08-04T12:24:01.673Z,14.43
2018-08-04T12:29:05.108Z,16.50
2018-08-04T12:34:08.104Z,16.03
2018-08-04T12:39:11.543Z,38.57
2018-08-04T12:44:15.032Z,23.57
2018-08-04T12:49:18.060Z,17.80
2018-08-04T12:54:21.305Z,16.10
2018-08-04T12:59:24.458Z,16.17
2018-08-04T13:04:27.757Z,16.47
2018-08-04T13:09:30.764Z,19.00
2018-08-04T13:14:33.884Z,12.40
2018-08-04T13:19:37.068Z,14.37
2018-08-04T13:24:40.330Z,14.80
2018-08-04T13:29:43.357Z,20.37
2018-08-04T13:34:46.742Z,13.40
2018-08-04T13:39:50.024Z,12.93
2018-08-04T13:44:53.267Z,21.77
2018-08-04T13:49:56.294Z,13.20
2018-08-04T13:54:59.308Z,13.10
2018-08-04T14:00:05.232Z,13.40
2018-08-04T14:05:08.345Z,16.43
2018-08-04T14:10:11.392Z,12.10
2018-08-04T14:15:14.425Z,15.27
2018-08-04T14:20:17.556Z,14.20
2018-08-04T14:25:20.847Z,11.27
2018-08-04T14:30:23.897Z,11.20
2018-08-04T14:35:27.208Z,11.63
2018-08-04T14:40:30.281Z,10.60
2018-08-04T14:45:33.349Z,12.80
2018-08-04T14:50:36.532Z,12.20
2018-08-04T14:55:39.576Z,43.47
2018-08-04T15:00:42.818Z,14.17
2018-08-04T15:05:45.892Z,51.03
2018-08-04T15:10:49.213Z,49.57
2018-08-04T15:15:52.522Z,10.03
2018-08-04T15:20:55.738Z,11.67
2018-08-04T15:25:59.056Z,18.47
2018-08-04T15:31:02.260Z,14.93
2018-08-04T15:36:05.770Z,17.30
2018-08-04T15:41:09.071Z,14.30
2018-08-04T15:46:12.280Z,14.00
2018-08-04T15:51:15.586Z,13.70
2018-08-04T15:56:18.925Z,14.33
2018-08-04T16:01:21.920Z,15.50
2018-08-04T16:06:25.124Z,14.07
2018-08-04T16:11:28.196Z,14.07
2018-08-04T16:16:31.231Z,15.20
2018-08-04T16:21:34.457Z,14.70
2018-08-04T16:26:38.340Z,17.20
2018-08-04T16:31:41.367Z,13.27
2018-08-04T16:36:44.680Z,12.27
2018-08-04T16:41:47.711Z,11.00
2018-08-04T16:46:50.987Z,8.60
2018-08-04T16:51:54.085Z,9.23
2018-08-04T16:56:57.216Z,12.03
2018-08-04T17:02:00.435Z,9.73
2018-08-04T17:07:03.564Z,8.50
2018-08-04T17:12:06.823Z,13.27
2018-08-04T17:17:10.108Z,10.30
2018-08-04T17:22:13.388Z,9.50
2018-08-04T17:27:16.378Z,7.90
2018-08-04T17:32:19.929Z,8.67
2018-08-04T17:37:22.972Z,7.97
2018-08-04T17:42:26.008Z,8.50
2018-08-04T17:47:30.046Z,8.93
2018-08-04T17:52:33.094Z,9.10
2018-08-04T17:57:36.112Z,6.20
2018-08-04T18:02:39.558Z,6.47
2018-08-04T18:07:42.619Z,7.03
2018-08-04T18:12:45.851Z,8.30
2018-08-04T18:17:49.269Z,8.27
2018-08-04T18:22:52.284Z,6.87
2018-08-04T18:27:55.679Z,7.33
2018-08-04T18:32:58.831Z,5.50
2018-08-04T18:38:01.958Z,6.20
2018-08-04T18:43:05.076Z,6.57
2018-08-04T18:48:08.111Z,5.77
2018-08-04T18:53:11.187Z,5.60
2018-08-04T18:58:14.215Z,5.47
2018-08-04T19:03:17.315Z,5.07
2018-08-04T19:08:20.825Z,7.93
2018-08-04T19:13:23.926Z,6.17
2018-08-04T19:18:27.258Z,4.83
2018-08-04T19:23:31.216Z,5.13
2018-08-04T19:28:34.468Z,3.83
2018-08-04T19:33:37.705Z,3.83
2018-08-04T19:38:40.911Z,4.10
2018-08-04T19:43:44.073Z,7.00
2018-08-04T19:48:47.338Z,3.53
2018-08-04T19:53:50.499Z,4.10
2018-08-04T19:58:53.756Z,7.60
2018-08-04T20:03:56.809Z,3.03
2018-08-04T20:08:59.951Z,3.73
2018-08-04T20:14:03.043Z,3.60
2018-08-04T20:19:06.226Z,3.20
2018-08-04T20:24:09.286Z,9.93
2018-08-04T20:29:12.334Z,5.00
2018-08-04T20:34:15.707Z,6.73
2018-08-04T20:39:19.018Z,3.80
2018-08-04T20:44:22.030Z,3.30
2018-08-04T20:49:25.044Z,3.13
2018-08-04T20:54:28.329Z,3.60
2018-08-04T20:59:31.410Z,9.00
2018-08-04T21:04:35.673Z,6.00
2018-08-04T21:09:38.838Z,7.70
2018-08-04T21:14:41.862Z,3.83
2018-08-04T21:19:44.947Z,6.40
2018-08-04T21:24:47.991Z,5.70
2018-08-04T21:29:51.061Z,4.63
2018-08-04T21:34:54.517Z,3.20
2018-08-04T21:39:57.782Z,5.77
2018-08-04T21:45:00.811Z,2.87
2018-08-04T21:50:04.270Z,4.37
2018-08-04T21:55:07.377Z,6.73
2018-08-04T22:00:12.510Z,3.63
2018-08-04T22:05:15.699Z,6.30
2018-08-04T22:10:18.742Z,3.30
2018-08-04T22:15:22.027Z,3.40
2018-08-04T22:20:25.671Z,4.40
2018-08-04T22:25:29.676Z,3.70
2018-08-04T22:30:32.703Z,6.30
2018-08-04T22:35:35.929Z,5.97
2018-08-04T22:40:39.103Z,4.87
2018-08-04T22:46:08.924Z,6.13
2018-08-04T22:51:12.022Z,5.10
2018-08-04T22:56:15.093Z,3.27
2018-08-04T23:01:18.144Z,4.93
2018-08-04T23:06:21.447Z,4.20
2018-08-04T23:11:24.492Z,3.23
2018-08-04T23:16:27.483Z,4.47
2018-08-04T23:21:30.539Z,4.80
2018-08-04T23:26:33.560Z,6.37
2018-08-04T23:31:36.616Z,3.83
2018-08-04T23:36:40.720Z,6.07
2018-08-04T23:41:43.936Z,5.67
2018-08-04T23:46:47.121Z,3.87
2018-08-04T23:51:50.430Z,3.07
2018-08-04T23:56:53.632Z,5.07
